Flight Track Log - Related Links

Times and Time Zones

All times are in EDT time to prevent confusion due to time zone crossing. See the SWA508 flight status page for this flight to view local times or setup timezone preferences in your user account.

Time Position Orientation Groundspeed Altitude Reporting Facility
EDT Latitude Longitude Course Direction KTS MPH feet Rate Location/Type
Thu 08:15:20 AM 28.4167 -81.3167 139° Southeast 162 186 1,000  Level Orlando TRACON
Thu 08:16:33 AM 28.3833 -81.2833 139° Southeast 210 242 4,500 2,752 Climbing Orlando TRACON
Thu 08:17:33 AM 28.3833 -81.2167 90° East 292 336 7,100 3,400 Climbing Orlando TRACON
Thu 08:18:33 AM 28.4667 -81.2333 350° North 297 342 11,300 4,013 Climbing Orlando TRACON
Thu 08:20:07 AM 28.6133 -81.2750 346° North 352 405 17,400 3,662 Climbing Jacksonville Center
Thu 08:21:07 AM 28.7161 -81.2994 348° North 357 411 20,700 3,300 Climbing Jacksonville Center
Thu 08:22:07 AM 28.8247 -81.3236 349° North 377 434 24,000 2,650 Climbing Jacksonville Center
Thu 08:23:07 AM 28.9358 -81.3506 348° North 388 447 26,000 2,000 Climbing Jacksonville Center
Thu 08:24:07 AM 29.0508 -81.3819 347° North 415 478 28,000 2,050 Climbing Jacksonville Center
Thu 08:25:07 AM 29.1722 -81.3967 354° North 433 498 30,100 1,900 Climbing Jacksonville Center
Thu 08:26:07 AM 29.2831 -81.4069 355° North 444 511 31,800 1,450 Climbing Jacksonville Center
Thu 08:27:07 AM 29.4103 -81.4169 356° North 444 511 33,000 1,850 Climbing Jacksonville Center
Thu 08:28:07 AM 29.5358 -81.4342 353° North 449 517 35,500 2,150 Climbing Jacksonville Center
Thu 08:29:07 AM 29.6611 -81.4467 355° North 449 517 37,300 1,650 Climbing Jacksonville Center
Thu 08:30:07 AM 29.7867 -81.4567 356° North 444 511 38,800 850 Climbing Jacksonville Center
Thu 08:31:07 AM 29.9161 -81.4692 355° North 450 518 39,000 800 Climbing Jacksonville Center
Thu 08:32:07 AM 30.0394 -81.4817 355° North 450 518 40,400 1,000 Climbing Jacksonville Center
Thu 08:33:07 AM 30.1650 -81.4944 355° North 450 518 41,000 300 Climbing Jacksonville Center
Thu 08:34:07 AM 30.2922 -81.4828 North 445 512 41,000  Level Jacksonville Center
Thu 08:35:07 AM 30.4194 -81.4664 North 445 512 41,000  Level Jacksonville Center
Thu 08:36:07 AM 30.5422 -81.4478 North 445 512 41,000  Level Jacksonville Center
Thu 08:37:07 AM 30.6694 -81.4267 North 450 518 41,000  Level Jacksonville Center
Thu 08:38:07 AM 30.7925 -81.4078 North 445 512 41,000  Level Jacksonville Center
Thu 08:39:07 AM 30.9133 -81.3914 North 445 512 41,000  Level Jacksonville Center
Thu 08:40:07 AM 31.0403 -81.3722 North 445 512 41,000  Level Jacksonville Center
Thu 08:41:07 AM 31.1614 -81.3533 North 445 512 41,000  Level Jacksonville Center
Thu 08:42:07 AM 31.2864 -81.3342 North 445 512 41,000  Level Jacksonville Center
Thu 08:43:07 AM 31.4092 -81.3128 North 445 512 41,000  Level Jacksonville Center
Thu 08:44:07 AM 31.5467 -81.2933 North 445 512 41,000  Level Jacksonville Center
Thu 08:45:07 AM 31.6678 -81.2742 North 445 512 41,000  Level Jacksonville Center
Thu 08:46:07 AM 31.7803 -81.2575 North 440 506 41,000  Level Jacksonville Center
Thu 08:47:07 AM 31.9053 -81.2383 North 448 516 41,000  Level Jacksonville Center
Thu 08:48:07 AM 32.0261 -81.2189 North 448 516 41,000  Level Jacksonville Center
Thu 08:49:07 AM 32.1489 -81.1994 North 442 509 41,000  Level Jacksonville Center
Thu 08:50:08 AM 32.2719 -81.1897 North 442 509 41,000  Level Jacksonville Center
Thu 08:51:07 AM 32.3931 -81.1803 North 442 509 41,000  Level Jacksonville Center
Thu 08:52:07 AM 32.5264 -81.1703 North 437 503 41,000  Level Jacksonville Center
Thu 08:53:07 AM 32.6347 -81.1608 North 437 503 41,000  Level Jacksonville Center
Thu 08:54:07 AM 32.7558 -81.1511 North 437 503 41,000  Level Jacksonville Center
Thu 08:55:07 AM 32.8747 -81.1389 North 432 497 41,000  Level Jacksonville Center
Thu 08:56:07 AM 32.9975 -81.1292 North 432 497 41,000  Level Jacksonville Center
Thu 08:57:07 AM 33.1164 -81.1217 North 432 497 41,000  Level Jacksonville Center
Thu 08:58:07 AM 33.2375 -81.1119 North 432 497 41,000  Level Jacksonville Center
Thu 08:59:07 AM 33.3561 -81.1022 North 432 497 41,000  Level Jacksonville Center
Thu 09:00:07 AM 33.4772 -81.0897 North 432 497 41,000  Level Jacksonville Center
Thu 09:01:07 AM 33.6000 -81.0822 North 432 497 41,000  Level Jacksonville Center
Thu 09:02:07 AM 33.7208 -81.0672 North 432 497 41,000  Level Jacksonville Center
Thu 09:04:25 AM 33.9956 -81.0397 North 426 490 41,000  Level Atlanta Center
Thu 09:05:25 AM 34.1164 -81.0278 North 433 498 41,000  Level Atlanta Center
Thu 09:06:25 AM 34.2369 -81.0136 North 433 498 41,000  Level Atlanta Center
Thu 09:07:25 AM 34.3725 -81.0011 North 439 505 41,000  Level Atlanta Center
Thu 09:08:25 AM 34.4931 -80.9917 North 439 505 41,000  Level Atlanta Center
Thu 09:09:25 AM 34.6097 -80.9800 North 433 498 41,000  Level Atlanta Center
Thu 09:10:25 AM 34.7306 -80.9681 North 433 498 41,000  Level Atlanta Center
Thu 09:11:25 AM 34.8511 -80.9533 North 433 498 41,000  Level Atlanta Center
Thu 09:12:25 AM 34.9739 -80.9411 North 433 498 41,000  Level Atlanta Center
Thu 09:13:25 AM 35.0781 -80.9297 North 427 491 41,000  Level Atlanta Center
Thu 09:14:25 AM 35.2008 -80.9175 North 427 491 41,000  Level Atlanta Center
Thu 09:15:25 AM 35.3172 -80.9031 North 432 497 41,000  Level Atlanta Center
Thu 09:16:25 AM 35.4400 -80.8906 North 432 497 41,000  Level Atlanta Center
Thu 09:17:25 AM 35.5606 -80.8733 North 432 497 41,000  Level Atlanta Center
Thu 09:18:25 AM 35.6814 -80.8633 North 432 497 41,000  Level Atlanta Center
Thu 09:19:25 AM 35.8042 -80.8511 North 432 497 41,000  Level Atlanta Center
Thu 09:20:25 AM 35.9228 -80.8386 North 432 497 41,000  Level Atlanta Center
Thu 09:21:25 AM 36.0453 -80.8236 North 432 497 41,000  Level Atlanta Center
Thu 09:22:25 AM 36.1619 -80.8136 North 432 497 41,000  Level Atlanta Center
Thu 09:23:25 AM 36.2825 -80.8011 North 427 491 41,000  Level Atlanta Center
Thu 09:24:25 AM 36.4114 -80.7856 North 422 486 41,000  Level Atlanta Center
Thu 09:25:25 AM 36.5300 -80.7731 North 422 486 41,000  Level Atlanta Center
Thu 09:26:25 AM 36.6464 -80.7606 North 422 486 41,000 -359 Level Atlanta Center
Thu 09:28:12 AM 36.8483 -80.7442 North 410 472 40,000 -1,127 Descending Washington Center
Thu 09:29:10 AM 36.9678 -80.7314 North 410 472 37,900 -2,370 Descending Washington Center
Thu 09:30:11 AM 37.0750 -80.7150 North 420 483 35,300 -1,426 Descending Washington Center
Thu 09:31:12 AM 37.1933 -80.6814 13° North 425 489 35,000 -148 Descending Washington Center
Thu 09:32:13 AM 37.3136 -80.6450 14° North 430 495 35,000 -508 Level Washington Center
Thu 09:33:10 AM 37.4344 -80.6033 15° North 435 501 34,000 -1,220 Descending Washington Center
Thu 09:34:11 AM 37.5550 -80.5642 14° North 442 509 32,600 -1,537 Descending Washington Center
Thu 09:35:11 AM 37.6881 -80.5203 15° North 442 509 30,900 -1,488 Descending Washington Center
Thu 09:36:12 AM 37.8111 -80.4731 17° North 442 509 29,600 -1,220 Descending Washington Center
Thu 09:37:09 AM 37.9261 -80.4175 21° North 442 509 28,500 -966 Descending Washington Center
Thu 09:38:10 AM 38.0303 -80.3661 21° North 422 486 27,700 -893 Descending Washington Center
Thu 09:39:10 AM 38.1344 -80.3147 21° North 405 466 26,700 -992 Descending Washington Center
Thu 09:40:11 AM 38.2261 -80.2650 23° Northeast 399 459 25,700 -1,000 Descending Washington Center
Thu 09:41:10 AM 38.3261 -80.2183 20° North 394 453 24,700 -857 Descending Washington Center
Thu 09:42:10 AM 38.4239 -80.1661 23° Northeast 387 445 24,000 -347 Descending Washington Center
Thu 09:43:11 AM 38.5217 -80.1164 22° Northeast 381 438 24,000  Level Washington Center
Thu 09:44:12 AM 38.6300 -80.0644 21° North 381 438 24,000  Level Washington Center
Thu 09:45:12 AM 38.7300 -80.0119 22° Northeast 381 438 24,000  Level Washington Center
Thu 09:46:47 AM 38.8772 -79.9325 23° Northeast 392 451 24,000  Level Cleveland Center
Thu 09:47:47 AM 38.9750 -79.8836 21° North 381 438 24,000 -900 Level Cleveland Center
Thu 09:48:47 AM 39.0706 -79.8319 23° Northeast 374 430 22,200 -1,500 Descending Cleveland Center
Thu 09:49:47 AM 39.1681 -79.7825 21° North 374 430 21,000 -600 Descending Cleveland Center
Thu 09:50:47 AM 39.2614 -79.7333 22° Northeast 374 430 21,000  Level Cleveland Center
Thu 09:51:47 AM 39.3550 -79.6864 21° North 374 430 21,000 -400 Level Cleveland Center
Thu 09:52:47 AM 39.4550 -79.6744 North 360 414 20,200 -900 Descending Cleveland Center
Thu 09:53:47 AM 39.5550 -79.6786 358° North 360 414 19,200 -1,000 Descending Cleveland Center
Thu 09:54:47 AM 39.6508 -79.6853 357° North 354 407 18,200 -800 Descending Cleveland Center
Thu 09:55:47 AM 39.7489 -79.6919 357° North 349 402 17,600 -800 Descending Cleveland Center
Thu 09:56:47 AM 39.8428 -79.6961 358° North 349 402 16,600 -1,100 Descending Cleveland Center
Thu 09:57:47 AM 39.9408 -79.7003 358° North 349 402 15,400 -1,600 Descending Cleveland Center
Thu 09:58:47 AM 40.0283 -79.7183 351° North 343 395 13,400 -1,800 Descending Cleveland Center
Thu 09:59:47 AM 40.1019 -79.7933 322° Northwest 317 365 11,800 -1,550 Descending Cleveland Center
Thu 10:00:47 AM 40.1692 -79.8658 321° Northwest 317 365 10,300 -900 Descending Cleveland Center
Thu 10:01:47 AM 40.2364 -79.9411 319° Northwest 317 365 10,000 -400 Descending Cleveland Center
Thu 10:02:47 AM 40.3056 -80.0169 320° Northwest 298 343 9,500 -1,100 Descending Cleveland Center
Thu 10:03:47 AM 40.3683 -80.0872 320° Northwest 292 336 7,800 -1,650 Descending Cleveland Center
Thu 10:04:47 AM 40.3939 -80.1850 289° West 275 316 6,200 -1,000 Descending Cleveland Center
Thu 10:05:47 AM 40.3961 -80.2806 272° West 267 307 5,800 -400 Descending Cleveland Center
Thu 10:07:00 AM 40.4833 -80.2167 303° West  Level FlightAware Approximate
Thu 10:14:00 AM 40.4915 -80.2329 303° West  Level Estimated
Thu 10:15:00 AM 40.4915 -80.2329 303° West  Level Estimated
Thu 10:16:00 AM 40.4915 -80.2329 303° West  Level Estimated

Login

Don't have an account? Register now (free) for customized features, flight alerts, and more!